Aérodrome :
LOGIN :

S'inscrire | Disclaimer

   EN    FR    IT 

 










Légende :    VFR   VFR Marginal   IFR   IFR Intensif   IFR Très Intensif
Visi : 
Plafond : 
>= 8 km
>= 3000ft
5 à 8 km
1000 à 3000 ft
1500m à 5 km
500 à 1000 ft
800 à 1500m
200 à 500 ft
< 800m
< 200 ft
Symboles :   Orages  Brouillard  Fortes neiges  Fortes précipitations  Vent > 20 kt
SIGMETs :   Divers  Orages  Givrage  Turbulence  Onde Orograph.  Cendres Volcan.







- Altitude de l'aérodrome : 284 ft


EGUW - RAF Wattisham

DERNIER METAR :
  • 180750Z 18006KT 8000 BR FEW009 BKN200 06/06 Q1015 BLU TEMPO BKN008 GRN

METARs EXPIRÉS :
  • 180650Z 19007KT 7000 BR FEW100 BKN200 06/06 Q1014 WHT
  • 180550Z AUTO 19006KT 9000 BR NCD 07/06 Q1015

TAF TAF EGUW
Valide du 18 à 09h jusqu'au 18 à 18h UTC


180745Z 1809/1818 19009KT 9999 FEW007
PROB30
TEMPO 1809/1810 BKN007
TEMPO 1810/1816 -RA BKN013
Pas de NOTAMs connus pour ce terrain.



MET'MAP, la Météo Aéronautique d'un coup d'oeil ! - Copyright ORBIFLY Décembre 2007 - Disclaimer

ORBIFLY MET'MAP TEAM :

Programmation & Développement : Alexandra Zaïnal
Conception & Développement : Baudouin d'Aumeries
Co-Programmation & Développement : Marc-Olivier Méhu
Soutien technique & logistique : Manuel Goepfert

Contact : metmap@orbifly.com




SOURCES & CREDITS :

   NOAA